createdAt,value
2022-08-18T00:00:06.008Z,21
2022-08-18T00:10:05.908Z,21
2022-08-18T00:20:06.001Z,21
2022-08-18T00:30:06.089Z,21
2022-08-18T00:40:06.053Z,21
2022-08-18T00:50:06.121Z,20
2022-08-18T01:00:05.980Z,20
2022-08-18T01:10:06.118Z,19.5
2022-08-18T01:20:05.981Z,19.5
2022-08-18T01:30:06.127Z,19.5
2022-08-18T01:41:00.364Z,19
2022-08-18T01:50:06.098Z,18.5
2022-08-18T02:00:06.196Z,18.5
2022-08-18T02:10:06.095Z,18.5
2022-08-18T02:20:06.173Z,18.5
2022-08-18T02:30:06.101Z,18.5
2022-08-18T02:40:06.237Z,18.5
2022-08-18T02:50:06.063Z,18.5
2022-08-18T03:00:06.160Z,18.5
2022-08-18T03:10:32.154Z,18.5
2022-08-18T03:20:06.173Z,18.5
2022-08-18T03:30:06.275Z,18.5
2022-08-18T03:40:06.230Z,18.5
2022-08-18T03:50:06.271Z,18.5
2022-08-18T04:00:06.181Z,18.5
2022-08-18T04:10:06.263Z,18.5
2022-08-18T04:20:06.157Z,18.5
2022-08-18T04:30:06.260Z,18.5
2022-08-18T04:40:06.429Z,18.5
2022-08-18T04:50:06.245Z,18.5
2022-08-18T05:00:06.358Z,18.5
2022-08-18T05:10:06.245Z,18.5
2022-08-18T05:20:06.349Z,18.5
2022-08-18T05:30:06.241Z,18.5
2022-08-18T05:40:10.986Z,18.5
2022-08-18T05:50:06.241Z,18.5
2022-08-18T06:00:06.340Z,18.5
2022-08-18T06:10:06.440Z,18.5
2022-08-18T06:20:06.345Z,18.5
2022-08-18T06:30:06.434Z,19
2022-08-18T06:40:06.393Z,19
2022-08-18T06:50:06.432Z,19
2022-08-18T07:00:06.318Z,19
2022-08-18T07:10:06.423Z,19
2022-08-18T07:20:06.530Z,20
2022-08-18T07:30:06.443Z,20
2022-08-18T07:40:06.588Z,20.5
2022-08-18T07:50:23.262Z,21.5
2022-08-18T08:00:10.401Z,22.5
2022-08-18T08:10:06.405Z,23
2022-08-18T08:20:06.504Z,23
2022-08-18T08:30:06.408Z,23
2022-08-18T08:40:06.575Z,23.5
2022-08-18T08:50:06.639Z,24
2022-08-18T09:00:07.630Z,24
2022-08-18T09:10:06.617Z,24
2022-08-18T09:20:07.049Z,24
2022-08-18T09:30:06.638Z,24
2022-08-18T09:40:11.193Z,24
2022-08-18T09:50:06.775Z,23.5
2022-08-18T10:00:06.538Z,25
2022-08-18T10:10:12.749Z,23.5
2022-08-18T10:20:06.709Z,22.5
2022-08-18T10:30:06.629Z,22.5
2022-08-18T10:40:06.755Z,23.5
2022-08-18T10:50:06.593Z,23.5
2022-08-18T11:00:06.704Z,23.5
2022-08-18T11:10:28.161Z,23.5
2022-08-18T11:20:06.726Z,22.5
2022-08-18T11:30:06.643Z,22.5
2022-08-18T11:40:07.172Z,23.5
2022-08-18T11:50:06.790Z,25
2022-08-18T12:00:06.767Z,25
2022-08-18T12:10:15.427Z,25
2022-08-18T12:20:06.770Z,25
2022-08-18T12:30:06.799Z,25
2022-08-18T12:40:06.780Z,25
2022-08-18T12:50:06.769Z,24.5
2022-08-18T13:00:06.669Z,24
2022-08-18T13:10:06.812Z,24
2022-08-18T13:20:07.575Z,24
2022-08-18T13:30:17.004Z,24
2022-08-18T13:40:07.176Z,23
2022-08-18T13:50:06.802Z,23
2022-08-18T14:00:12.266Z,23
2022-08-18T14:10:06.791Z,22.5
2022-08-18T14:20:06.876Z,22.5
2022-08-18T14:30:06.793Z,22.5
2022-08-18T14:40:06.881Z,22.5
2022-08-18T14:50:06.955Z,23
2022-08-18T15:00:06.853Z,23
2022-08-18T15:10:17.041Z,24
2022-08-18T15:20:06.822Z,24
2022-08-18T15:30:06.955Z,24
2022-08-18T15:40:06.869Z,23
2022-08-18T15:50:17.036Z,23
2022-08-18T16:00:06.851Z,23
2022-08-18T16:10:06.948Z,23
2022-08-18T16:20:07.061Z,22.5
2022-08-18T16:30:06.950Z,22.5
2022-08-18T16:40:07.127Z,21.5
2022-08-18T16:50:06.959Z,21.5
2022-08-18T17:00:07.043Z,21.5
2022-08-18T17:10:07.068Z,21.5
2022-08-18T17:20:07.052Z,21.5
2022-08-18T17:30:06.950Z,21.5
2022-08-18T17:40:07.131Z,21.5
2022-08-18T17:50:27.662Z,21.5
2022-08-18T18:00:07.030Z,21.5
2022-08-18T18:10:07.150Z,22
2022-08-18T18:20:07.082Z,22
2022-08-18T18:30:07.177Z,22
2022-08-18T18:40:07.197Z,22
2022-08-18T18:50:07.194Z,22
2022-08-18T19:00:07.278Z,21.5
2022-08-18T19:10:07.345Z,21.5
2022-08-18T19:20:07.295Z,21.5
2022-08-18T19:30:07.192Z,21.5
2022-08-18T19:40:07.659Z,21.5
2022-08-18T19:50:07.191Z,21.5
2022-08-18T20:00:07.299Z,22
2022-08-18T20:10:07.158Z,21.5
2022-08-18T20:20:07.250Z,21.5
2022-08-18T20:30:07.174Z,21.5
2022-08-18T20:40:07.326Z,21.5
2022-08-18T20:50:07.353Z,21.5
2022-08-18T21:00:07.239Z,21.5
2022-08-18T21:10:12.611Z,21
2022-08-18T21:20:07.260Z,20.5
2022-08-18T21:30:07.347Z,20.5
2022-08-18T21:40:07.297Z,20.5
2022-08-18T21:50:07.340Z,20.5
2022-08-18T22:00:07.224Z,20.5
2022-08-18T22:10:07.332Z,20
2022-08-18T22:20:07.439Z,19.5
2022-08-18T22:30:07.341Z,19.5
2022-08-18T22:40:07.614Z,19.5
2022-08-18T22:50:07.395Z,19.5
2022-08-18T23:00:07.292Z,19.5
2022-08-18T23:10:08.346Z,19
2022-08-18T23:20:07.489Z,18.5
2022-08-18T23:30:07.402Z,19
2022-08-18T23:40:07.528Z,18.5
2022-08-18T23:50:07.381Z,18.5
